Аэропорт: Ленкорань. Ленкорань

ICAO: UBBL

METAR:
2018/05/20 19:00
UBBL 201900Z 00000KT 9999 SCT100 17/15 Q1015 R33/CLRD// NOSIG RMK MT OP
METAR:
2018/05/20 18:00
TAF UBBL 201702Z 2018/2118 VRB04KT 9999 SCT100 TX27/2110Z TN12/2103Z 
      TEMPO 2022/2104 3000 BR SCT004 
      BECMG 2106/2108 12006KT 
      TEMPO 2108/2116 SCT040CB BKN100